sensor_id;sensor_type;location;lat;lon;timestamp;pressure;altitude;pressure_sealevel;temperature
20867;BMP280;10593;48.398;10.698;2024-02-21T00:00:53;97173.56;;;12.63
20867;BMP280;10593;48.398;10.698;2024-02-21T00:03:19;97169.28;;;12.62
20867;BMP280;10593;48.398;10.698;2024-02-21T00:05:45;97167.59;;;12.60
20867;BMP280;10593;48.398;10.698;2024-02-21T00:08:10;97174.47;;;12.59
20867;BMP280;10593;48.398;10.698;2024-02-21T00:10:36;97172.78;;;12.58
20867;BMP280;10593;48.398;10.698;2024-02-21T00:13:02;97165.91;;;12.57
20867;BMP280;10593;48.398;10.698;2024-02-21T00:15:28;97161.59;;;12.56
20867;BMP280;10593;48.398;10.698;2024-02-21T00:17:54;97159.88;;;12.55
20867;BMP280;10593;48.398;10.698;2024-02-21T00:20:20;97157.34;;;12.54
20867;BMP280;10593;48.398;10.698;2024-02-21T00:22:46;97154.78;;;12.52
20867;BMP280;10593;48.398;10.698;2024-02-21T00:25:11;97158.22;;;12.53
20867;BMP280;10593;48.398;10.698;2024-02-21T00:27:38;97151.38;;;12.52
20867;BMP280;10593;48.398;10.698;2024-02-21T00:30:05;97153.06;;;12.53
20867;BMP280;10593;48.398;10.698;2024-02-21T00:32:31;97153.94;;;12.52
20867;BMP280;10593;48.398;10.698;2024-02-21T00:34:57;97150.50;;;12.51
20867;BMP280;10593;48.398;10.698;2024-02-21T00:37:23;97144.50;;;12.51
20867;BMP280;10593;48.398;10.698;2024-02-21T00:39:49;97141.94;;;12.49
20867;BMP280;10593;48.398;10.698;2024-02-21T00:42:14;97146.22;;;12.50
20867;BMP280;10593;48.398;10.698;2024-02-21T00:44:40;97141.06;;;12.49
20867;BMP280;10593;48.398;10.698;2024-02-21T00:47:06;97137.59;;;12.50
20867;BMP280;10593;48.398;10.698;2024-02-21T00:49:31;97137.59;;;12.50
20867;BMP280;10593;48.398;10.698;2024-02-21T00:51:57;97141.94;;;12.49
20867;BMP280;10593;48.398;10.698;2024-02-21T00:54:22;97132.50;;;12.48
20867;BMP280;10593;48.398;10.698;2024-02-21T00:56:48;97139.34;;;12.48
20867;BMP280;10593;48.398;10.698;2024-02-21T00:59:14;97140.22;;;12.47
20867;BMP280;10593;48.398;10.698;2024-02-21T01:01:39;97130.78;;;12.48
20867;BMP280;10593;48.398;10.698;2024-02-21T01:04:09;97131.66;;;12.47
20867;BMP280;10593;48.398;10.698;2024-02-21T01:06:35;97138.53;;;12.46
20867;BMP280;10593;48.398;10.698;2024-02-21T01:09:00;97135.94;;;12.46
20867;BMP280;10593;48.398;10.698;2024-02-21T01:11:26;97129.94;;;12.46
20867;BMP280;10593;48.398;10.698;2024-02-21T01:13:53;97126.50;;;12.45
20867;BMP280;10593;48.398;10.698;2024-02-21T01:16:18;97121.34;;;12.45
20867;BMP280;10593;48.398;10.698;2024-02-21T01:18:44;97126.50;;;12.45
20867;BMP280;10593;48.398;10.698;2024-02-21T01:21:10;97121.38;;;12.44
20867;BMP280;10593;48.398;10.698;2024-02-21T01:23:36;97112.78;;;12.43
20867;BMP280;10593;48.398;10.698;2024-02-21T01:26:04;97110.22;;;12.43
20867;BMP280;10593;48.398;10.698;2024-02-21T01:28:30;97099.91;;;12.43
20867;BMP280;10593;48.398;10.698;2024-02-21T01:30:57;97097.31;;;12.42
20867;BMP280;10593;48.398;10.698;2024-02-21T01:33:22;97088.75;;;12.41
20867;BMP280;10593;48.398;10.698;2024-02-21T01:35:48;97085.34;;;12.39
20867;BMP280;10593;48.398;10.698;2024-02-21T01:38:15;97080.19;;;12.39
20867;BMP280;10593;48.398;10.698;2024-02-21T01:40:41;97084.47;;;12.40
20867;BMP280;10593;48.398;10.698;2024-02-21T01:43:19;97073.34;;;12.38
20867;BMP280;10593;48.398;10.698;2024-02-21T01:45:55;97078.50;;;12.37
20867;BMP280;10593;48.398;10.698;2024-02-21T01:48:25;97074.22;;;12.37
20867;BMP280;10593;48.398;10.698;2024-02-21T01:50:54;97068.19;;;12.37
20867;BMP280;10593;48.398;10.698;2024-02-21T01:53:24;97067.31;;;12.36
20867;BMP280;10593;48.398;10.698;2024-02-21T01:55:50;97063.03;;;12.35
20867;BMP280;10593;48.398;10.698;2024-02-21T01:58:18;97067.31;;;12.36
20867;BMP280;10593;48.398;10.698;2024-02-21T02:00:45;97059.63;;;12.35
20867;BMP280;10593;48.398;10.698;2024-02-21T02:03:13;97046.75;;;12.33
20867;BMP280;10593;48.398;10.698;2024-02-21T02:05:49;97041.59;;;12.33
20867;BMP280;10593;48.398;10.698;2024-02-21T02:08:17;97044.19;;;12.32
20867;BMP280;10593;48.398;10.698;2024-02-21T02:10:43;97045.03;;;12.32
20867;BMP280;10593;48.398;10.698;2024-02-21T02:13:10;97043.34;;;12.31
20867;BMP280;10593;48.398;10.698;2024-02-21T02:15:47;97039.06;;;12.30
20867;BMP280;10593;48.398;10.698;2024-02-21T02:18:14;97043.38;;;12.28
20867;BMP280;10593;48.398;10.698;2024-02-21T02:20:41;97043.38;;;12.28
20867;BMP280;10593;48.398;10.698;2024-02-21T02:23:11;97033.06;;;12.28
20867;BMP280;10593;48.398;10.698;2024-02-21T02:25:38;97037.34;;;12.28
20867;BMP280;10593;48.398;10.698;2024-02-21T02:28:06;97025.34;;;12.28
20867;BMP280;10593;48.398;10.698;2024-02-21T02:30:35;97026.22;;;12.27
20867;BMP280;10593;48.398;10.698;2024-02-21T02:33:05;97026.22;;;12.27
20867;BMP280;10593;48.398;10.698;2024-02-21T02:35:31;97013.34;;;12.26
20867;BMP280;10593;48.398;10.698;2024-02-21T02:37:58;97015.09;;;12.24
20867;BMP280;10593;48.398;10.698;2024-02-21T02:40:24;97009.94;;;12.24
20867;BMP280;10593;48.398;10.698;2024-02-21T02:42:50;97011.63;;;12.23
20867;BMP280;10593;48.398;10.698;2024-02-21T02:45:17;97014.22;;;12.23
20867;BMP280;10593;48.398;10.698;2024-02-21T02:47:47;97013.38;;;12.23
20867;BMP280;10593;48.398;10.698;2024-02-21T02:50:13;97007.34;;;12.22
20867;BMP280;10593;48.398;10.698;2024-02-21T02:52:39;97006.50;;;12.22
20867;BMP280;10593;48.398;10.698;2024-02-21T02:55:06;97001.38;;;12.22
20867;BMP280;10593;48.398;10.698;2024-02-21T02:57:32;96999.66;;;12.21
20867;BMP280;10593;48.398;10.698;2024-02-21T02:59:58;96991.06;;;12.22
20867;BMP280;10593;48.398;10.698;2024-02-21T03:02:23;96991.91;;;12.22
20867;BMP280;10593;48.398;10.698;2024-02-21T03:04:49;96997.03;;;12.22
20867;BMP280;10593;48.398;10.698;2024-02-21T03:07:15;96991.91;;;12.22
20867;BMP280;10593;48.398;10.698;2024-02-21T03:09:41;96991.91;;;12.22
20867;BMP280;10593;48.398;10.698;2024-02-21T03:12:10;96988.47;;;12.22
20867;BMP280;10593;48.398;10.698;2024-02-21T03:14:35;96997.91;;;12.23
20867;BMP280;10593;48.398;10.698;2024-02-21T03:17:02;96989.31;;;12.22
20867;BMP280;10593;48.398;10.698;2024-02-21T03:19:29;96991.91;;;12.22
20867;BMP280;10593;48.398;10.698;2024-02-21T03:21:55;96991.91;;;12.22
20867;BMP280;10593;48.398;10.698;2024-02-21T03:24:21;96990.19;;;12.23
20867;BMP280;10593;48.398;10.698;2024-02-21T03:26:47;96985.91;;;12.22
20867;BMP280;10593;48.398;10.698;2024-02-21T03:29:15;96980.75;;;12.22
20867;BMP280;10593;48.398;10.698;2024-02-21T03:31:42;96986.75;;;12.22
20867;BMP280;10593;48.398;10.698;2024-02-21T03:34:10;96979.88;;;12.21
20867;BMP280;10593;48.398;10.698;2024-02-21T03:36:36;96972.16;;;12.23
20867;BMP280;10593;48.398;10.698;2024-02-21T03:39:02;96967.88;;;12.22
20867;BMP280;10593;48.398;10.698;2024-02-21T03:41:29;96965.28;;;12.22
20867;BMP280;10593;48.398;10.698;2024-02-21T03:43:55;96974.72;;;12.21
20867;BMP280;10593;48.398;10.698;2024-02-21T03:46:20;96967.00;;;12.21
20867;BMP280;10593;48.398;10.698;2024-02-21T03:48:46;96974.72;;;12.21
20867;BMP280;10593;48.398;10.698;2024-02-21T03:51:12;96974.72;;;12.21
20867;BMP280;10593;48.398;10.698;2024-02-21T03:53:37;96978.19;;;12.20
20867;BMP280;10593;48.398;10.698;2024-02-21T03:56:04;96979.06;;;12.21
20867;BMP280;10593;48.398;10.698;2024-02-21T03:58:33;96983.34;;;12.20
20867;BMP280;10593;48.398;10.698;2024-02-21T04:01:03;96974.78;;;12.20
20867;BMP280;10593;48.398;10.698;2024-02-21T04:03:30;96971.31;;;12.19
20867;BMP280;10593;48.398;10.698;2024-02-21T04:05:56;96973.06;;;12.19
20867;BMP280;10593;48.398;10.698;2024-02-21T04:08:22;96971.31;;;12.19
20867;BMP280;10593;48.398;10.698;2024-02-21T04:10:48;96963.63;;;12.18
20867;BMP280;10593;48.398;10.698;2024-02-21T04:13:14;96967.91;;;12.19
20867;BMP280;10593;48.398;10.698;2024-02-21T04:15:40;96961.91;;;12.18
20867;BMP280;10593;48.398;10.698;2024-02-21T04:18:06;96955.91;;;12.18
20867;BMP280;10593;48.398;10.698;2024-02-21T04:20:31;96944.72;;;12.17
20867;BMP280;10593;48.398;10.698;2024-02-21T04:22:58;96941.28;;;12.18
20867;BMP280;10593;48.398;10.698;2024-02-21T04:25:24;96943.03;;;12.18
20867;BMP280;10593;48.398;10.698;2024-02-21T04:27:49;96934.41;;;12.19
20867;BMP280;10593;48.398;10.698;2024-02-21T04:30:15;96927.56;;;12.18
20867;BMP280;10593;48.398;10.698;2024-02-21T04:32:41;96921.53;;;12.17
20867;BMP280;10593;48.398;10.698;2024-02-21T04:35:08;96912.13;;;12.16
20867;BMP280;10593;48.398;10.698;2024-02-21T04:37:34;96915.56;;;12.15
20867;BMP280;10593;48.398;10.698;2024-02-21T04:40:00;96905.25;;;12.17
20867;BMP280;10593;48.398;10.698;2024-02-21T04:42:26;96905.25;;;12.15
20867;BMP280;10593;48.398;10.698;2024-02-21T04:44:51;96895.84;;;12.14
20867;BMP280;10593;48.398;10.698;2024-02-21T04:47:18;96895.84;;;12.14
20867;BMP280;10593;48.398;10.698;2024-02-21T04:49:44;96885.53;;;12.13
20867;BMP280;10593;48.398;10.698;2024-02-21T04:52:09;96889.81;;;12.14
20867;BMP280;10593;48.398;10.698;2024-02-21T04:54:35;96890.69;;;12.14
20867;BMP280;10593;48.398;10.698;2024-02-21T04:57:01;96890.69;;;12.13
20867;BMP280;10593;48.398;10.698;2024-02-21T04:59:27;96886.41;;;12.13
20867;BMP280;10593;48.398;10.698;2024-02-21T05:01:52;96890.69;;;12.13
20867;BMP280;10593;48.398;10.698;2024-02-21T05:04:18;96893.25;;;12.13
20867;BMP280;10593;48.398;10.698;2024-02-21T05:06:44;96880.38;;;12.13
20867;BMP280;10593;48.398;10.698;2024-02-21T05:09:10;96883.00;;;12.11
20867;BMP280;10593;48.398;10.698;2024-02-21T05:11:36;96873.53;;;12.12
20867;BMP280;10593;48.398;10.698;2024-02-21T05:14:03;96872.69;;;12.11
20867;BMP280;10593;48.398;10.698;2024-02-21T05:16:30;96866.69;;;12.11
20867;BMP280;10593;48.398;10.698;2024-02-21T05:18:56;96862.38;;;12.11
20867;BMP280;10593;48.398;10.698;2024-02-21T05:21:25;96859.81;;;12.10
20867;BMP280;10593;48.398;10.698;2024-02-21T05:23:52;96858.13;;;12.10
20867;BMP280;10593;48.398;10.698;2024-02-21T05:26:25;96850.41;;;12.09
20867;BMP280;10593;48.398;10.698;2024-02-21T05:28:51;96844.38;;;12.08
20867;BMP280;10593;48.398;10.698;2024-02-21T05:31:20;96845.25;;;12.09
20867;BMP280;10593;48.398;10.698;2024-02-21T05:33:47;96838.38;;;12.08
20867;BMP280;10593;48.398;10.698;2024-02-21T05:36:13;96833.25;;;12.08
20867;BMP280;10593;48.398;10.698;2024-02-21T05:38:39;96827.22;;;12.07
20867;BMP280;10593;48.398;10.698;2024-02-21T05:41:05;96815.22;;;12.06
20867;BMP280;10593;48.398;10.698;2024-02-21T05:43:31;96814.34;;;12.07
20867;BMP280;10593;48.398;10.698;2024-02-21T05:45:57;96817.78;;;12.06
20867;BMP280;10593;48.398;10.698;2024-02-21T05:48:23;96816.97;;;12.06
20867;BMP280;10593;48.398;10.698;2024-02-21T05:50:49;96808.38;;;12.05
20867;BMP280;10593;48.398;10.698;2024-02-21T05:53:15;96806.66;;;12.04
20867;BMP280;10593;48.398;10.698;2024-02-21T05:55:41;96806.66;;;12.04
20867;BMP280;10593;48.398;10.698;2024-02-21T05:58:07;96802.38;;;12.03
20867;BMP280;10593;48.398;10.698;2024-02-21T06:00:35;96803.25;;;12.02
20867;BMP280;10593;48.398;10.698;2024-02-21T06:03:01;96803.28;;;12.01
20867;BMP280;10593;48.398;10.698;2024-02-21T06:05:27;96810.16;;;12.00
20867;BMP280;10593;48.398;10.698;2024-02-21T06:07:53;96809.31;;;12.00
20867;BMP280;10593;48.398;10.698;2024-02-21T06:10:19;96814.44;;;12.00
20867;BMP280;10593;48.398;10.698;2024-02-21T06:12:44;96812.75;;;11.99
20867;BMP280;10593;48.398;10.698;2024-02-21T06:15:10;96814.50;;;11.98
20867;BMP280;10593;48.398;10.698;2024-02-21T06:17:35;96820.53;;;11.97
20867;BMP280;10593;48.398;10.698;2024-02-21T06:20:01;96823.09;;;11.97
20867;BMP280;10593;48.398;10.698;2024-02-21T06:22:27;96817.06;;;11.98
20867;BMP280;10593;48.398;10.698;2024-02-21T06:24:52;96812.78;;;11.97
20867;BMP280;10593;48.398;10.698;2024-02-21T06:27:19;96816.19;;;11.98
20867;BMP280;10593;48.398;10.698;2024-02-21T06:29:45;96809.34;;;11.97
20867;BMP280;10593;48.398;10.698;2024-02-21T06:32:11;96807.66;;;11.97
20867;BMP280;10593;48.398;10.698;2024-02-21T06:34:36;96810.22;;;11.97
20867;BMP280;10593;48.398;10.698;2024-02-21T06:37:02;96802.50;;;11.97
20867;BMP280;10593;48.398;10.698;2024-02-21T06:39:29;96806.78;;;11.95
20867;BMP280;10593;48.398;10.698;2024-02-21T06:41:55;96799.06;;;11.97
20867;BMP280;10593;48.398;10.698;2024-02-21T06:44:21;96797.34;;;11.97
20867;BMP280;10593;48.398;10.698;2024-02-21T06:46:47;96792.19;;;11.97
20867;BMP280;10593;48.398;10.698;2024-02-21T06:49:13;96798.19;;;11.96
20867;BMP280;10593;48.398;10.698;2024-02-21T06:51:44;96793.91;;;11.95
20867;BMP280;10593;48.398;10.698;2024-02-21T06:54:10;96799.94;;;11.96
20867;BMP280;10593;48.398;10.698;2024-02-21T06:56:37;96800.81;;;11.95
20867;BMP280;10593;48.398;10.698;2024-02-21T06:59:03;96805.94;;;11.95
20867;BMP280;10593;48.398;10.698;2024-02-21T07:01:30;96800.81;;;11.95
20867;BMP280;10593;48.398;10.698;2024-02-21T07:03:56;96805.84;;;12.01
20867;BMP280;10593;48.398;10.698;2024-02-21T07:06:22;96800.63;;;12.07
20867;BMP280;10593;48.398;10.698;2024-02-21T07:08:48;96798.00;;;12.11
20867;BMP280;10593;48.398;10.698;2024-02-21T07:11:14;96794.47;;;12.17
20867;BMP280;10593;48.398;10.698;2024-02-21T07:13:39;96790.97;;;12.19
20867;BMP280;10593;48.398;10.698;2024-02-21T07:16:07;96789.22;;;12.21
20867;BMP280;10593;48.398;10.698;2024-02-21T07:18:32;96802.97;;;12.22
20867;BMP280;10593;48.398;10.698;2024-02-21T07:20:58;96802.94;;;12.23
20867;BMP280;10593;48.398;10.698;2024-02-21T07:23:24;96811.53;;;12.22
20867;BMP280;10593;48.398;10.698;2024-02-21T07:25:50;96792.63;;;12.23
20867;BMP280;10593;48.398;10.698;2024-02-21T07:28:16;96788.34;;;12.24
20867;BMP280;10593;48.398;10.698;2024-02-21T07:30:43;96784.88;;;12.26
20867;BMP280;10593;48.398;10.698;2024-02-21T07:33:08;96777.03;;;12.32
20867;BMP280;10593;48.398;10.698;2024-02-21T07:35:35;96773.44;;;12.44
20867;BMP280;10593;48.398;10.698;2024-02-21T07:38:05;96779.81;;;12.70
20867;BMP280;10593;48.398;10.698;2024-02-21T07:40:31;96778.47;;;12.98
20867;BMP280;10593;48.398;10.698;2024-02-21T07:42:57;96768.66;;;13.18
20867;BMP280;10593;48.398;10.698;2024-02-21T07:45:22;96767.47;;;13.34
20867;BMP280;10593;48.398;10.698;2024-02-21T07:47:50;96771.53;;;13.44
20867;BMP280;10593;48.398;10.698;2024-02-21T07:50:16;96777.41;;;13.50
20867;BMP280;10593;48.398;10.698;2024-02-21T07:52:43;96764.47;;;13.53
20867;BMP280;10593;48.398;10.698;2024-02-21T07:55:09;96759.25;;;13.56
20867;BMP280;10593;48.398;10.698;2024-02-21T07:57:36;96759.25;;;13.56
20867;BMP280;10593;48.398;10.698;2024-02-21T08:00:03;96761.81;;;13.56
20867;BMP280;10593;48.398;10.698;2024-02-21T08:02:30;96769.56;;;13.56
20867;BMP280;10593;48.398;10.698;2024-02-21T08:04:55;96766.97;;;13.56
20867;BMP280;10593;48.398;10.698;2024-02-21T08:07:21;96758.34;;;13.57
20867;BMP280;10593;48.398;10.698;2024-02-21T08:09:47;96760.06;;;13.57
20867;BMP280;10593;48.398;10.698;2024-02-21T08:12:12;96759.25;;;13.56
20867;BMP280;10593;48.398;10.698;2024-02-21T08:14:38;96751.50;;;13.56
20867;BMP280;10593;48.398;10.698;2024-02-21T08:17:04;96751.50;;;13.56
20867;BMP280;10593;48.398;10.698;2024-02-21T08:19:29;96748.94;;;13.55
20867;BMP280;10593;48.398;10.698;2024-02-21T08:21:55;96747.16;;;13.57
20867;BMP280;10593;48.398;10.698;2024-02-21T08:24:21;96742.88;;;13.56
20867;BMP280;10593;48.398;10.698;2024-02-21T08:26:48;96736.84;;;13.57
20867;BMP280;10593;48.398;10.698;2024-02-21T08:29:14;96734.25;;;13.57
20867;BMP280;10593;48.398;10.698;2024-02-21T08:31:39;96735.13;;;13.57
20867;BMP280;10593;48.398;10.698;2024-02-21T08:34:05;96736.84;;;13.57
20867;BMP280;10593;48.398;10.698;2024-02-21T08:36:35;96740.28;;;13.57
20867;BMP280;10593;48.398;10.698;2024-02-21T08:39:02;96741.16;;;13.56
20867;BMP280;10593;48.398;10.698;2024-02-21T08:41:31;96739.41;;;13.57
20867;BMP280;10593;48.398;10.698;2024-02-21T08:43:57;96726.50;;;13.57
20867;BMP280;10593;48.398;10.698;2024-02-21T08:46:23;96720.50;;;13.56
20867;BMP280;10593;48.398;10.698;2024-02-21T08:48:51;96715.31;;;13.58
20867;BMP280;10593;48.398;10.698;2024-02-21T08:51:17;96713.59;;;13.57
20867;BMP280;10593;48.398;10.698;2024-02-21T08:53:45;96712.75;;;13.58
20867;BMP280;10593;48.398;10.698;2024-02-21T08:56:11;96710.19;;;13.56
20867;BMP280;10593;48.398;10.698;2024-02-21T08:58:41;96711.88;;;13.57
20867;BMP280;10593;48.398;10.698;2024-02-21T09:01:07;96709.28;;;13.57
20867;BMP280;10593;48.398;10.698;2024-02-21T09:03:37;96717.91;;;13.58
20867;BMP280;10593;48.398;10.698;2024-02-21T09:06:05;96718.75;;;13.58
20867;BMP280;10593;48.398;10.698;2024-02-21T09:08:31;96711.88;;;13.57
20867;BMP280;10593;48.398;10.698;2024-02-21T09:10:57;96701.53;;;13.59
20867;BMP280;10593;48.398;10.698;2024-02-21T09:13:22;96705.81;;;13.60
20867;BMP280;10593;48.398;10.698;2024-02-21T09:15:49;96695.47;;;13.60
20867;BMP280;10593;48.398;10.698;2024-02-21T09:18:15;96701.44;;;13.62
20867;BMP280;10593;48.398;10.698;2024-02-21T09:20:43;96696.28;;;13.62
20867;BMP280;10593;48.398;10.698;2024-02-21T09:23:09;96693.69;;;13.62
20867;BMP280;10593;48.398;10.698;2024-02-21T09:25:35;96691.94;;;13.64
20867;BMP280;10593;48.398;10.698;2024-02-21T09:28:02;96690.19;;;13.64
20867;BMP280;10593;48.398;10.698;2024-02-21T09:30:28;96688.44;;;13.66
20867;BMP280;10593;48.398;10.698;2024-02-21T09:32:54;96686.63;;;13.70
20867;BMP280;10593;48.398;10.698;2024-02-21T09:35:20;96683.16;;;13.71
20867;BMP280;10593;48.398;10.698;2024-02-21T09:37:48;96674.53;;;13.72
20867;BMP280;10593;48.398;10.698;2024-02-21T09:40:15;96674.50;;;13.73
20867;BMP280;10593;48.398;10.698;2024-02-21T09:42:47;96671.00;;;13.76
20867;BMP280;10593;48.398;10.698;2024-02-21T09:45:22;96662.34;;;13.78
20867;BMP280;10593;48.398;10.698;2024-02-21T09:50:40;96664.78;;;13.83
20867;BMP280;10593;48.398;10.698;2024-02-21T09:53:07;96660.47;;;13.85
20867;BMP280;10593;48.398;10.698;2024-02-21T09:55:37;96662.06;;;13.89
20867;BMP280;10593;48.398;10.698;2024-02-21T09:58:05;96659.44;;;13.90
20867;BMP280;10593;48.398;10.698;2024-02-21T10:00:31;96658.50;;;13.94
20867;BMP280;10593;48.398;10.698;2024-02-21T10:02:58;96656.66;;;13.98
20867;BMP280;10593;48.398;10.698;2024-02-21T10:05:24;96649.75;;;14.00
20867;BMP280;10593;48.398;10.698;2024-02-21T10:07:51;96649.59;;;14.04
20867;BMP280;10593;48.398;10.698;2024-02-21T10:10:17;96644.41;;;14.06
20867;BMP280;10593;48.398;10.698;2024-02-21T10:12:53;96637.44;;;14.09
20867;BMP280;10593;48.398;10.698;2024-02-21T10:15:22;96642.56;;;14.11
20867;BMP280;10593;48.398;10.698;2024-02-21T10:17:59;96641.63;;;14.13
20867;BMP280;10593;48.398;10.698;2024-02-21T10:20:25;96631.25;;;14.16
20867;BMP280;10593;48.398;10.698;2024-02-21T10:23:04;96622.56;;;14.19
20867;BMP280;10593;48.398;10.698;2024-02-21T10:25:34;96637.13;;;14.23
20867;BMP280;10593;48.398;10.698;2024-02-21T10:28:02;96628.47;;;14.24
20867;BMP280;10593;48.398;10.698;2024-02-21T10:30:29;96624.94;;;14.28
20867;BMP280;10593;48.398;10.698;2024-02-21T10:32:55;96617.13;;;14.29
20867;BMP280;10593;48.398;10.698;2024-02-21T10:35:29;96618.75;;;14.33
20867;BMP280;10593;48.398;10.698;2024-02-21T10:37:59;96610.94;;;14.35
20867;BMP280;10593;48.398;10.698;2024-02-21T10:40:29;96608.28;;;14.38
20867;BMP280;10593;48.398;10.698;2024-02-21T10:42:58;96599.66;;;14.39
20867;BMP280;10593;48.398;10.698;2024-02-21T10:45:45;96596.13;;;14.41
20867;BMP280;10593;48.398;10.698;2024-02-21T10:48:15;96590.84;;;14.44
20867;BMP280;10593;48.398;10.698;2024-02-21T10:51:14;96579.59;;;14.47
20867;BMP280;10593;48.398;10.698;2024-02-21T10:54:13;96580.41;;;14.49
20867;BMP280;10593;48.398;10.698;2024-02-21T10:56:43;96581.19;;;14.51
20867;BMP280;10593;48.398;10.698;2024-02-21T10:59:13;96572.47;;;14.55
20867;BMP280;10593;48.398;10.698;2024-02-21T11:01:39;96567.22;;;14.58
20867;BMP280;10593;48.398;10.698;2024-02-21T11:04:07;96565.44;;;14.60
20867;BMP280;10593;48.398;10.698;2024-02-21T11:06:37;96561.03;;;14.63
20867;BMP280;10593;48.398;10.698;2024-02-21T11:09:09;96558.34;;;14.66
20867;BMP280;10593;48.398;10.698;2024-02-21T11:11:37;96554.84;;;14.68
20867;BMP280;10593;48.398;10.698;2024-02-21T11:14:19;96558.22;;;14.70
20867;BMP280;10593;48.398;10.698;2024-02-21T11:16:47;96558.13;;;14.73
20867;BMP280;10593;48.398;10.698;2024-02-21T11:19:28;96558.91;;;14.77
20867;BMP280;10593;48.398;10.698;2024-02-21T11:21:55;96553.66;;;14.78
20867;BMP280;10593;48.398;10.698;2024-02-21T11:24:29;96542.38;;;14.81
20867;BMP280;10593;48.398;10.698;2024-02-21T11:27:18;96540.56;;;14.84
20867;BMP280;10593;48.398;10.698;2024-02-21T11:29:54;96537.03;;;14.87
20867;BMP280;10593;48.398;10.698;2024-02-21T11:32:21;96522.31;;;14.89
20867;BMP280;10593;48.398;10.698;2024-02-21T11:34:59;96513.56;;;14.93
20867;BMP280;10593;48.398;10.698;2024-02-21T11:37:28;96514.34;;;14.95
20867;BMP280;10593;48.398;10.698;2024-02-21T11:39:55;96510.84;;;14.97
20867;BMP280;10593;48.398;10.698;2024-02-21T11:42:21;96506.41;;;15.01
20867;BMP280;10593;48.398;10.698;2024-02-21T11:44:48;96492.47;;;15.05
20867;BMP280;10593;48.398;10.698;2024-02-21T11:47:15;96495.03;;;15.06
20867;BMP280;10593;48.398;10.698;2024-02-21T11:49:48;96485.41;;;15.10
20867;BMP280;10593;48.398;10.698;2024-02-21T11:52:24;96480.16;;;15.13
20867;BMP280;10593;48.398;10.698;2024-02-21T11:54:54;96466.25;;;15.15
20867;BMP280;10593;48.398;10.698;2024-02-21T11:57:22;96464.47;;;15.17
20867;BMP280;10593;48.398;10.698;2024-02-21T11:59:48;96457.44;;;15.21
20867;BMP280;10593;48.398;10.698;2024-02-21T12:02:15;96441.88;;;15.22
20867;BMP280;10593;48.398;10.698;2024-02-21T12:04:43;96438.28;;;15.26
20867;BMP280;10593;48.398;10.698;2024-02-21T12:07:09;96428.72;;;15.28
20867;BMP280;10593;48.398;10.698;2024-02-21T12:09:35;96420.88;;;15.31
20867;BMP280;10593;48.398;10.698;2024-02-21T12:12:05;96426.81;;;15.35
20867;BMP280;10593;48.398;10.698;2024-02-21T12:14:34;96411.22;;;15.36
20867;BMP280;10593;48.398;10.698;2024-02-21T12:17:02;96401.66;;;15.38
20867;BMP280;10593;48.398;10.698;2024-02-21T12:19:32;96409.28;;;15.43
20867;BMP280;10593;48.398;10.698;2024-02-21T12:22:00;96410.03;;;15.46
20867;BMP280;10593;48.398;10.698;2024-02-21T12:24:28;96395.28;;;15.48
20867;BMP280;10593;48.398;10.698;2024-02-21T12:26:55;96400.31;;;15.53
20867;BMP280;10593;48.398;10.698;2024-02-21T12:29:22;96401.03;;;15.56
20867;BMP280;10593;48.398;10.698;2024-02-21T12:31:50;96389.72;;;15.59
20867;BMP280;10593;48.398;10.698;2024-02-21T12:34:16;96385.28;;;15.62
20867;BMP280;10593;48.398;10.698;2024-02-21T12:36:46;96380.81;;;15.66
20867;BMP280;10593;48.398;10.698;2024-02-21T12:39:14;96383.38;;;15.67
20867;BMP280;10593;48.398;10.698;2024-02-21T12:41:41;96379.75;;;15.71
20867;BMP280;10593;48.398;10.698;2024-02-21T12:44:09;96378.84;;;15.72
20867;BMP280;10593;48.398;10.698;2024-02-21T12:46:35;96370.09;;;15.76
20867;BMP280;10593;48.398;10.698;2024-02-21T12:49:02;96357.91;;;15.78
20867;BMP280;10593;48.398;10.698;2024-02-21T12:51:31;96357.88;;;15.80
20867;BMP280;10593;48.398;10.698;2024-02-21T12:53:57;96347.44;;;15.81
20867;BMP280;10593;48.398;10.698;2024-02-21T12:56:23;96346.53;;;15.82
20867;BMP280;10593;48.398;10.698;2024-02-21T12:58:50;96342.09;;;15.86
20867;BMP280;10593;48.398;10.698;2024-02-21T13:01:16;96341.16;;;15.88
20867;BMP280;10593;48.398;10.698;2024-02-21T13:03:42;96335.06;;;15.89
20867;BMP280;10593;48.398;10.698;2024-02-21T13:06:08;96328.06;;;15.91
20867;BMP280;10593;48.398;10.698;2024-02-21T13:08:36;96323.66;;;15.93
20867;BMP280;10593;48.398;10.698;2024-02-21T13:11:03;96319.28;;;15.95
20867;BMP280;10593;48.398;10.698;2024-02-21T13:13:28;96313.97;;;15.98
20867;BMP280;10593;48.398;10.698;2024-02-21T13:15:54;96300.97;;;16.00
20867;BMP280;10593;48.398;10.698;2024-02-21T13:18:20;96301.75;;;16.02
20867;BMP280;10593;48.398;10.698;2024-02-21T13:20:45;96287.84;;;16.04
20867;BMP280;10593;48.398;10.698;2024-02-21T13:23:11;96286.88;;;16.07
20867;BMP280;10593;48.398;10.698;2024-02-21T13:25:38;96280.72;;;16.09
20867;BMP280;10593;48.398;10.698;2024-02-21T13:28:04;96278.91;;;16.11
20867;BMP280;10593;48.398;10.698;2024-02-21T13:30:29;96276.31;;;16.11
20867;BMP280;10593;48.398;10.698;2024-02-21T13:32:55;96273.63;;;16.14
20867;BMP280;10593;48.398;10.698;2024-02-21T13:35:21;96267.53;;;16.15
20867;BMP280;10593;48.398;10.698;2024-02-21T13:37:46;96269.22;;;16.16
20867;BMP280;10593;48.398;10.698;2024-02-21T13:40:12;96260.53;;;16.17
20867;BMP280;10593;48.398;10.698;2024-02-21T13:42:39;96250.94;;;16.19
20867;BMP280;10593;48.398;10.698;2024-02-21T13:45:06;96247.44;;;16.20
20867;BMP280;10593;48.398;10.698;2024-02-21T13:47:33;96247.38;;;16.22
20867;BMP280;10593;48.398;10.698;2024-02-21T13:49:59;96245.63;;;16.22
20867;BMP280;10593;48.398;10.698;2024-02-21T13:52:25;96241.22;;;16.24
20867;BMP280;10593;48.398;10.698;2024-02-21T13:54:53;96240.31;;;16.25
20867;BMP280;10593;48.398;10.698;2024-02-21T13:57:19;96229.88;;;16.27
20867;BMP280;10593;48.398;10.698;2024-02-21T13:59:44;96232.47;;;16.27